Main page
Satellite images 15-day forecastsClimateMarine weather Cyclones Lightning AirportsFAQ Newsletter About
Weather : Europe Africa North America South America Asia Australia-Oceania Others
Languages Contact

Alpine, Texas, United States

Alpine-Casparis Municipal Airport

latitude: 30-23-03N, longitude: 103-41-00W, elevation: 1376 m


METAR: KE38 200835Z AUTO 00000KT 7SM SCT004 12/12 A3016 RMK AO2 T01230119
short-TAF: missing
long-TAF: missing

Time: 03:42 (08:42 UTC)

Current weather observation

The report was made 7 minutes ago, at 08:35 UTC  
Wind calm
Temperature 12°C
Humidity 100%
Pressure 1021 hPa
Visibility 11.3 km
Scattered clouds at a height of 400 ft

Change units
The information on this site is subject to a disclaimer
Weather : Europe Africa North America South America Asia Australia-Oceania Others
Satellite images 15-day forecastsClimateMarine weather Cyclones Lightning AirportsFAQ Languages Contact Newsletter About